Decoded Metar for CYMT (CHIBOUGAMAU CHAP in QC, CANADA) (IATA:YMT) | Meteo·Mobile Aviation Weather
aviador You're here:

CYMT Decoded Metar

CHIBOUGAMAU CHAP in QC, CANADA
Report Time2018-12-16 02:00:00
UTC Time2018-12-16 03:05:54
Flight Rules mvfr MVFR
Wind250° at 06 kt
W.Decomp.*RWY 22: 4.2 kt HW 4.3 kt RCW
W.Rank250° ranks 13
Current wind is below 250° avg. (7.0)
Visibility9999 m
Phenomena:N/A
Clouds:Overcast 013 Hf
Expected CloudBase > 800 ft AGL from Temp-Dew spread
Ceiling1,300 ft
Temp-3°C (ISA -15)
Dew Point-5°C (86% RH)
AAT-7.8°C
QNH1023 hPa
Density Alt-906 ft
Elevation1,270 ft
Report Wrong Elevation
Raw Report
CYMT 160200Z AUTO 25006KT 9SM OVC013 M03/M05 A3021 RMK SLP255=

Extra information for CYMT:More info

Metar Taf Metar & Taf Last 4 Metars F.Rules Stats Wind Profile Meteogram Temp Stats Airport Information Weather charts Add Link Nearby VenuesMetar ALERT Operation Metar Decoded Social comments